sensor_id;sensor_type;location;lat;lon;timestamp;temperature;humidity
26952;DHT22;14507;52.418;13.398;2023-01-16T00:01:23;5.40;99.90
26952;DHT22;14507;52.418;13.398;2023-01-16T00:03:49;5.40;99.90
26952;DHT22;14507;52.418;13.398;2023-01-16T00:06:14;5.30;99.90
26952;DHT22;14507;52.418;13.398;2023-01-16T00:08:44;5.30;99.90
26952;DHT22;14507;52.418;13.398;2023-01-16T00:11:10;5.30;99.90
26952;DHT22;14507;52.418;13.398;2023-01-16T00:13:37;5.20;99.90
26952;DHT22;14507;52.418;13.398;2023-01-16T00:16:03;5.20;99.90
26952;DHT22;14507;52.418;13.398;2023-01-16T00:18:29;5.10;99.90
26952;DHT22;14507;52.418;13.398;2023-01-16T00:20:55;5.30;99.90
26952;DHT22;14507;52.418;13.398;2023-01-16T00:23:21;5.10;99.90
26952;DHT22;14507;52.418;13.398;2023-01-16T00:25:46;5.10;99.90
26952;DHT22;14507;52.418;13.398;2023-01-16T00:28:13;5.10;99.90
26952;DHT22;14507;52.418;13.398;2023-01-16T00:30:39;5.10;99.90
26952;DHT22;14507;52.418;13.398;2023-01-16T00:33:05;5.00;99.90
26952;DHT22;14507;52.418;13.398;2023-01-16T00:35:32;5.00;99.90
26952;DHT22;14507;52.418;13.398;2023-01-16T00:37:57;4.90;99.90
26952;DHT22;14507;52.418;13.398;2023-01-16T00:40:23;5.00;99.90
26952;DHT22;14507;52.418;13.398;2023-01-16T00:42:49;4.90;99.90
26952;DHT22;14507;52.418;13.398;2023-01-16T00:45:15;4.80;99.90
26952;DHT22;14507;52.418;13.398;2023-01-16T00:47:41;5.20;99.90
26952;DHT22;14507;52.418;13.398;2023-01-16T00:50:07;4.80;99.90
26952;DHT22;14507;52.418;13.398;2023-01-16T00:52:33;4.80;99.90
26952;DHT22;14507;52.418;13.398;2023-01-16T00:54:59;4.80;99.90
26952;DHT22;14507;52.418;13.398;2023-01-16T00:57:25;4.80;99.90
26952;DHT22;14507;52.418;13.398;2023-01-16T00:59:50;4.80;99.90
26952;DHT22;14507;52.418;13.398;2023-01-16T01:02:16;4.70;99.90
26952;DHT22;14507;52.418;13.398;2023-01-16T01:04:42;4.70;99.90
26952;DHT22;14507;52.418;13.398;2023-01-16T01:07:07;5.00;99.90
26952;DHT22;14507;52.418;13.398;2023-01-16T01:09:33;4.60;99.90
26952;DHT22;14507;52.418;13.398;2023-01-16T01:11:59;4.60;99.90
26952;DHT22;14507;52.418;13.398;2023-01-16T01:14:25;4.60;99.90
26952;DHT22;14507;52.418;13.398;2023-01-16T01:16:51;4.60;99.90
26952;DHT22;14507;52.418;13.398;2023-01-16T01:19:17;4.60;99.90
26952;DHT22;14507;52.418;13.398;2023-01-16T01:21:42;4.60;99.90
26952;DHT22;14507;52.418;13.398;2023-01-16T01:24:09;5.20;99.90
26952;DHT22;14507;52.418;13.398;2023-01-16T01:26:34;4.60;99.90
26952;DHT22;14507;52.418;13.398;2023-01-16T01:29:00;4.50;99.90
26952;DHT22;14507;52.418;13.398;2023-01-16T01:31:26;4.50;99.90
26952;DHT22;14507;52.418;13.398;2023-01-16T01:33:51;4.40;99.90
26952;DHT22;14507;52.418;13.398;2023-01-16T01:36:17;4.90;99.90
26952;DHT22;14507;52.418;13.398;2023-01-16T01:38:43;4.70;99.90
26952;DHT22;14507;52.418;13.398;2023-01-16T01:41:12;4.30;99.90
26952;DHT22;14507;52.418;13.398;2023-01-16T01:43:47;4.30;99.90
26952;DHT22;14507;52.418;13.398;2023-01-16T01:46:43;4.30;99.90
26952;DHT22;14507;52.418;13.398;2023-01-16T01:49:21;4.30;99.90
26952;DHT22;14507;52.418;13.398;2023-01-16T01:51:48;4.30;99.90
26952;DHT22;14507;52.418;13.398;2023-01-16T01:54:18;4.30;99.90
26952;DHT22;14507;52.418;13.398;2023-01-16T01:56:55;4.30;99.90
26952;DHT22;14507;52.418;13.398;2023-01-16T01:59:26;4.20;99.90
26952;DHT22;14507;52.418;13.398;2023-01-16T02:01:54;4.20;99.90
26952;DHT22;14507;52.418;13.398;2023-01-16T02:04:25;4.20;99.90
26952;DHT22;14507;52.418;13.398;2023-01-16T02:06:55;4.20;99.90
26952;DHT22;14507;52.418;13.398;2023-01-16T02:09:22;4.20;99.90
26952;DHT22;14507;52.418;13.398;2023-01-16T02:11:53;4.20;99.90
26952;DHT22;14507;52.418;13.398;2023-01-16T02:14:20;4.20;99.90
26952;DHT22;14507;52.418;13.398;2023-01-16T02:16:48;4.70;99.90
26952;DHT22;14507;52.418;13.398;2023-01-16T02:36:05;4.00;99.90
26952;DHT22;14507;52.418;13.398;2023-01-16T02:50:38;3.90;99.90
26952;DHT22;14507;52.418;13.398;2023-01-16T02:53:21;3.90;99.90
26952;DHT22;14507;52.418;13.398;2023-01-16T02:56:02;3.80;99.90
26952;DHT22;14507;52.418;13.398;2023-01-16T02:58:35;3.80;99.90
26952;DHT22;14507;52.418;13.398;2023-01-16T03:01:01;3.90;99.90
26952;DHT22;14507;52.418;13.398;2023-01-16T03:03:39;3.80;99.90
26952;DHT22;14507;52.418;13.398;2023-01-16T03:06:17;3.40;99.90
26952;DHT22;14507;52.418;13.398;2023-01-16T03:09:01;3.80;99.90
26952;DHT22;14507;52.418;13.398;2023-01-16T03:11:33;3.70;99.90
26952;DHT22;14507;52.418;13.398;2023-01-16T03:14:28;3.80;99.90
26952;DHT22;14507;52.418;13.398;2023-01-16T03:17:17;3.80;99.90
26952;DHT22;14507;52.418;13.398;2023-01-16T03:22:43;3.70;99.90
26952;DHT22;14507;52.418;13.398;2023-01-16T03:25:24;3.70;99.90
26952;DHT22;14507;52.418;13.398;2023-01-16T03:33:22;3.80;99.90
26952;DHT22;14507;52.418;13.398;2023-01-16T03:36:06;3.80;99.90
26952;DHT22;14507;52.418;13.398;2023-01-16T03:38:35;3.70;99.90
26952;DHT22;14507;52.418;13.398;2023-01-16T03:41:03;3.70;99.90
26952;DHT22;14507;52.418;13.398;2023-01-16T03:43:36;3.70;99.90
26952;DHT22;14507;52.418;13.398;2023-01-16T03:46:12;3.80;99.90
26952;DHT22;14507;52.418;13.398;2023-01-16T03:48:55;3.80;99.90
26952;DHT22;14507;52.418;13.398;2023-01-16T03:51:25;3.70;99.90
26952;DHT22;14507;52.418;13.398;2023-01-16T03:59:37;3.80;99.90
26952;DHT22;14507;52.418;13.398;2023-01-16T04:02:13;3.70;99.90
26952;DHT22;14507;52.418;13.398;2023-01-16T04:04:54;3.80;99.90
26952;DHT22;14507;52.418;13.398;2023-01-16T04:07:26;3.80;99.90
26952;DHT22;14507;52.418;13.398;2023-01-16T04:09:57;3.80;99.90
26952;DHT22;14507;52.418;13.398;2023-01-16T04:12:27;3.80;99.90
26952;DHT22;14507;52.418;13.398;2023-01-16T04:14:57;3.80;99.90
26952;DHT22;14507;52.418;13.398;2023-01-16T04:17:23;3.80;99.90
26952;DHT22;14507;52.418;13.398;2023-01-16T04:19:49;3.80;99.90
26952;DHT22;14507;52.418;13.398;2023-01-16T04:22:24;3.80;99.90
26952;DHT22;14507;52.418;13.398;2023-01-16T04:24:51;3.80;99.90
26952;DHT22;14507;52.418;13.398;2023-01-16T04:27:18;3.80;99.90
26952;DHT22;14507;52.418;13.398;2023-01-16T04:29:44;3.80;99.90
26952;DHT22;14507;52.418;13.398;2023-01-16T04:32:10;3.80;99.90
26952;DHT22;14507;52.418;13.398;2023-01-16T04:34:36;3.80;99.90
26952;DHT22;14507;52.418;13.398;2023-01-16T04:37:02;3.70;99.90
26952;DHT22;14507;52.418;13.398;2023-01-16T04:39:27;3.70;99.90
26952;DHT22;14507;52.418;13.398;2023-01-16T04:41:53;3.70;99.90
26952;DHT22;14507;52.418;13.398;2023-01-16T04:44:19;3.70;99.90
26952;DHT22;14507;52.418;13.398;2023-01-16T04:46:44;3.70;99.90
26952;DHT22;14507;52.418;13.398;2023-01-16T04:49:10;3.70;99.90
26952;DHT22;14507;52.418;13.398;2023-01-16T04:51:36;3.60;99.90
26952;DHT22;14507;52.418;13.398;2023-01-16T04:54:04;3.60;99.90
26952;DHT22;14507;52.418;13.398;2023-01-16T04:56:31;3.60;99.90
26952;DHT22;14507;52.418;13.398;2023-01-16T04:58:56;3.60;99.90
26952;DHT22;14507;52.418;13.398;2023-01-16T05:01:22;3.70;99.90
26952;DHT22;14507;52.418;13.398;2023-01-16T05:03:48;3.60;99.90
26952;DHT22;14507;52.418;13.398;2023-01-16T05:06:13;3.50;99.90
26952;DHT22;14507;52.418;13.398;2023-01-16T05:08:39;3.60;99.90
26952;DHT22;14507;52.418;13.398;2023-01-16T05:11:05;3.60;99.90
26952;DHT22;14507;52.418;13.398;2023-01-16T05:13:30;3.50;99.90
26952;DHT22;14507;52.418;13.398;2023-01-16T05:15:56;3.50;99.90
26952;DHT22;14507;52.418;13.398;2023-01-16T05:18:23;3.50;99.90
26952;DHT22;14507;52.418;13.398;2023-01-16T05:20:48;3.60;99.90
26952;DHT22;14507;52.418;13.398;2023-01-16T05:23:14;3.60;99.90
26952;DHT22;14507;52.418;13.398;2023-01-16T05:25:40;3.60;99.90
26952;DHT22;14507;52.418;13.398;2023-01-16T05:28:06;3.80;99.90
26952;DHT22;14507;52.418;13.398;2023-01-16T05:30:31;3.60;99.90
26952;DHT22;14507;52.418;13.398;2023-01-16T05:32:57;3.60;99.90
26952;DHT22;14507;52.418;13.398;2023-01-16T05:35:23;3.70;99.90
26952;DHT22;14507;52.418;13.398;2023-01-16T05:37:48;3.60;99.90
26952;DHT22;14507;52.418;13.398;2023-01-16T05:40:14;3.60;99.90
26952;DHT22;14507;52.418;13.398;2023-01-16T05:42:42;3.60;99.90
26952;DHT22;14507;52.418;13.398;2023-01-16T05:45:08;3.70;99.90
26952;DHT22;14507;52.418;13.398;2023-01-16T05:47:34;3.70;99.90
26952;DHT22;14507;52.418;13.398;2023-01-16T05:50:00;3.80;99.90
26952;DHT22;14507;52.418;13.398;2023-01-16T05:52:26;3.80;99.90
26952;DHT22;14507;52.418;13.398;2023-01-16T05:54:52;3.80;99.90
26952;DHT22;14507;52.418;13.398;2023-01-16T05:57:18;3.80;99.90
26952;DHT22;14507;52.418;13.398;2023-01-16T05:59:48;3.80;99.90
26952;DHT22;14507;52.418;13.398;2023-01-16T06:02:13;3.80;99.90
26952;DHT22;14507;52.418;13.398;2023-01-16T06:04:39;3.80;99.90
26952;DHT22;14507;52.418;13.398;2023-01-16T06:07:04;3.80;99.90
26952;DHT22;14507;52.418;13.398;2023-01-16T06:09:30;3.80;99.90
26952;DHT22;14507;52.418;13.398;2023-01-16T06:11:56;3.80;99.90
26952;DHT22;14507;52.418;13.398;2023-01-16T06:14:21;3.80;99.90
26952;DHT22;14507;52.418;13.398;2023-01-16T06:16:47;3.80;99.90
26952;DHT22;14507;52.418;13.398;2023-01-16T06:19:13;3.70;99.90
26952;DHT22;14507;52.418;13.398;2023-01-16T06:21:38;3.80;99.90
26952;DHT22;14507;52.418;13.398;2023-01-16T06:24:04;3.80;99.90
26952;DHT22;14507;52.418;13.398;2023-01-16T06:26:30;3.80;99.90
26952;DHT22;14507;52.418;13.398;2023-01-16T06:28:55;3.80;99.90
26952;DHT22;14507;52.418;13.398;2023-01-16T06:31:22;3.80;99.90
26952;DHT22;14507;52.418;13.398;2023-01-16T06:33:47;3.80;99.90
26952;DHT22;14507;52.418;13.398;2023-01-16T06:36:13;3.80;99.90
26952;DHT22;14507;52.418;13.398;2023-01-16T06:38:39;3.80;99.90
26952;DHT22;14507;52.418;13.398;2023-01-16T06:41:05;3.80;99.90
26952;DHT22;14507;52.418;13.398;2023-01-16T06:43:30;3.80;99.90
26952;DHT22;14507;52.418;13.398;2023-01-16T06:45:56;3.90;99.90
26952;DHT22;14507;52.418;13.398;2023-01-16T06:48:22;3.80;99.90
26952;DHT22;14507;52.418;13.398;2023-01-16T06:50:48;3.90;99.90
26952;DHT22;14507;52.418;13.398;2023-01-16T06:53:14;3.80;99.90
26952;DHT22;14507;52.418;13.398;2023-01-16T06:55:41;3.80;99.90
26952;DHT22;14507;52.418;13.398;2023-01-16T06:58:07;3.80;99.90
26952;DHT22;14507;52.418;13.398;2023-01-16T07:00:33;3.80;99.90
26952;DHT22;14507;52.418;13.398;2023-01-16T07:03:00;4.00;99.90
26952;DHT22;14507;52.418;13.398;2023-01-16T07:05:27;3.80;99.90
26952;DHT22;14507;52.418;13.398;2023-01-16T07:07:54;3.90;99.90
26952;DHT22;14507;52.418;13.398;2023-01-16T07:10:20;4.00;99.90
26952;DHT22;14507;52.418;13.398;2023-01-16T07:12:47;3.90;99.90
26952;DHT22;14507;52.418;13.398;2023-01-16T07:15:12;3.90;99.90
26952;DHT22;14507;52.418;13.398;2023-01-16T07:17:57;3.90;99.90
26952;DHT22;14507;52.418;13.398;2023-01-16T07:20:41;3.90;99.90
26952;DHT22;14507;52.418;13.398;2023-01-16T07:23:32;3.80;99.90
26952;DHT22;14507;52.418;13.398;2023-01-16T07:26:01;3.80;99.90
26952;DHT22;14507;52.418;13.398;2023-01-16T07:28:27;3.90;99.90
26952;DHT22;14507;52.418;13.398;2023-01-16T07:30:54;3.90;99.90
26952;DHT22;14507;52.418;13.398;2023-01-16T07:33:20;4.10;99.90
26952;DHT22;14507;52.418;13.398;2023-01-16T07:35:46;3.90;99.90
26952;DHT22;14507;52.418;13.398;2023-01-16T07:38:12;3.90;99.90
26952;DHT22;14507;52.418;13.398;2023-01-16T07:40:37;3.90;99.90
26952;DHT22;14507;52.418;13.398;2023-01-16T07:43:03;3.90;99.90
26952;DHT22;14507;52.418;13.398;2023-01-16T07:45:29;4.00;99.90
26952;DHT22;14507;52.418;13.398;2023-01-16T07:47:54;3.90;99.90
26952;DHT22;14507;52.418;13.398;2023-01-16T07:50:20;3.90;99.90
26952;DHT22;14507;52.418;13.398;2023-01-16T07:52:46;3.90;99.90
26952;DHT22;14507;52.418;13.398;2023-01-16T07:55:12;4.00;99.90
26952;DHT22;14507;52.418;13.398;2023-01-16T07:57:39;4.00;99.90
26952;DHT22;14507;52.418;13.398;2023-01-16T08:00:06;4.10;99.90
26952;DHT22;14507;52.418;13.398;2023-01-16T08:02:32;4.00;99.90
26952;DHT22;14507;52.418;13.398;2023-01-16T08:04:58;4.00;99.90
26952;DHT22;14507;52.418;13.398;2023-01-16T08:07:23;4.10;99.90
26952;DHT22;14507;52.418;13.398;2023-01-16T08:09:49;4.10;99.90
26952;DHT22;14507;52.418;13.398;2023-01-16T08:12:14;4.10;99.90
26952;DHT22;14507;52.418;13.398;2023-01-16T08:14:40;4.10;99.90
26952;DHT22;14507;52.418;13.398;2023-01-16T08:17:06;4.10;99.90
26952;DHT22;14507;52.418;13.398;2023-01-16T08:19:31;4.20;99.90
26952;DHT22;14507;52.418;13.398;2023-01-16T08:21:57;4.30;99.90
26952;DHT22;14507;52.418;13.398;2023-01-16T08:24:23;4.20;99.90
26952;DHT22;14507;52.418;13.398;2023-01-16T08:26:51;4.30;99.90
26952;DHT22;14507;52.418;13.398;2023-01-16T08:29:17;4.30;99.90
26952;DHT22;14507;52.418;13.398;2023-01-16T08:31:43;4.30;99.90
26952;DHT22;14507;52.418;13.398;2023-01-16T08:34:08;4.30;99.90
26952;DHT22;14507;52.418;13.398;2023-01-16T08:36:35;4.40;99.90
26952;DHT22;14507;52.418;13.398;2023-01-16T08:39:00;4.40;99.90
26952;DHT22;14507;52.418;13.398;2023-01-16T08:41:26;4.40;99.90
26952;DHT22;14507;52.418;13.398;2023-01-16T08:44:11;4.50;99.90
26952;DHT22;14507;52.418;13.398;2023-01-16T08:47:02;4.60;99.90
26952;DHT22;14507;52.418;13.398;2023-01-16T08:49:48;4.70;99.90
26952;DHT22;14507;52.418;13.398;2023-01-16T08:52:33;4.80;99.90
26952;DHT22;14507;52.418;13.398;2023-01-16T08:55:00;4.80;99.90
26952;DHT22;14507;52.418;13.398;2023-01-16T08:57:26;4.90;99.90
26952;DHT22;14507;52.418;13.398;2023-01-16T08:59:54;4.80;99.90
26952;DHT22;14507;52.418;13.398;2023-01-16T09:02:19;4.80;99.90
26952;DHT22;14507;52.418;13.398;2023-01-16T09:04:46;4.80;99.90
26952;DHT22;14507;52.418;13.398;2023-01-16T09:07:13;4.80;99.90
26952;DHT22;14507;52.418;13.398;2023-01-16T09:09:39;4.80;99.90
26952;DHT22;14507;52.418;13.398;2023-01-16T09:12:09;4.80;99.90
26952;DHT22;14507;52.418;13.398;2023-01-16T09:14:53;4.80;99.90
26952;DHT22;14507;52.418;13.398;2023-01-16T09:17:21;4.70;99.90
26952;DHT22;14507;52.418;13.398;2023-01-16T09:19:47;4.70;99.90
26952;DHT22;14507;52.418;13.398;2023-01-16T09:22:12;4.70;99.90
26952;DHT22;14507;52.418;13.398;2023-01-16T09:24:38;4.70;99.90
26952;DHT22;14507;52.418;13.398;2023-01-16T09:27:04;4.60;99.90
26952;DHT22;14507;52.418;13.398;2023-01-16T09:29:31;4.70;99.90
26952;DHT22;14507;52.418;13.398;2023-01-16T09:31:57;4.90;99.90
26952;DHT22;14507;52.418;13.398;2023-01-16T09:34:22;4.70;99.90
26952;DHT22;14507;52.418;13.398;2023-01-16T09:36:48;4.70;99.90
26952;DHT22;14507;52.418;13.398;2023-01-16T09:39:14;4.80;99.90
26952;DHT22;14507;52.418;13.398;2023-01-16T09:44:44;5.00;99.90
26952;DHT22;14507;52.418;13.398;2023-01-16T09:47:11;5.00;99.90
26952;DHT22;14507;52.418;13.398;2023-01-16T09:49:50;5.10;99.90
26952;DHT22;14507;52.418;13.398;2023-01-16T09:52:20;5.10;99.90
26952;DHT22;14507;52.418;13.398;2023-01-16T09:55:18;5.30;99.90
26952;DHT22;14507;52.418;13.398;2023-01-16T09:58:04;5.50;99.90
26952;DHT22;14507;52.418;13.398;2023-01-16T10:00:50;5.60;99.90
26952;DHT22;14507;52.418;13.398;2023-01-16T10:03:16;5.70;99.90
26952;DHT22;14507;52.418;13.398;2023-01-16T10:08:31;5.70;99.90
26952;DHT22;14507;52.418;13.398;2023-01-16T10:12:03;5.80;99.90
26952;DHT22;14507;52.418;13.398;2023-01-16T10:14:40;5.90;99.90
26952;DHT22;14507;52.418;13.398;2023-01-16T10:20:08;6.10;99.90
26952;DHT22;14507;52.418;13.398;2023-01-16T10:31:12;6.40;99.90
26952;DHT22;14507;52.418;13.398;2023-01-16T10:33:47;6.50;99.90
26952;DHT22;14507;52.418;13.398;2023-01-16T10:36:15;6.60;99.90
26952;DHT22;14507;52.418;13.398;2023-01-16T10:38:44;6.60;99.90
26952;DHT22;14507;52.418;13.398;2023-01-16T10:41:20;6.70;99.90
26952;DHT22;14507;52.418;13.398;2023-01-16T10:47:12;6.80;99.90
26952;DHT22;14507;52.418;13.398;2023-01-16T10:49:57;6.90;99.90
26952;DHT22;14507;52.418;13.398;2023-01-16T10:52:23;6.90;99.90
26952;DHT22;14507;52.418;13.398;2023-01-16T10:54:51;7.00;99.90
26952;DHT22;14507;52.418;13.398;2023-01-16T10:57:19;7.10;99.90
26952;DHT22;14507;52.418;13.398;2023-01-16T10:59:49;7.70;99.90
26952;DHT22;14507;52.418;13.398;2023-01-16T11:02:27;8.20;99.90
26952;DHT22;14507;52.418;13.398;2023-01-16T11:04:54;8.20;99.90
26952;DHT22;14507;52.418;13.398;2023-01-16T11:07:21;8.10;99.90
26952;DHT22;14507;52.418;13.398;2023-01-16T11:09:47;8.00;99.90
26952;DHT22;14507;52.418;13.398;2023-01-16T11:12:30;8.00;99.90
26952;DHT22;14507;52.418;13.398;2023-01-16T11:15:24;7.90;99.90
26952;DHT22;14507;52.418;13.398;2023-01-16T11:18:21;7.80;99.90
26952;DHT22;14507;52.418;13.398;2023-01-16T11:20:53;7.70;99.90
26952;DHT22;14507;52.418;13.398;2023-01-16T11:23:23;7.70;99.90
26952;DHT22;14507;52.418;13.398;2023-01-16T11:25:51;7.70;99.90
26952;DHT22;14507;52.418;13.398;2023-01-16T11:28:27;7.70;99.90
26952;DHT22;14507;52.418;13.398;2023-01-16T11:30:56;7.70;99.90
26952;DHT22;14507;52.418;13.398;2023-01-16T11:33:26;7.60;99.90
26952;DHT22;14507;52.418;13.398;2023-01-16T11:35:55;7.60;99.90
26952;DHT22;14507;52.418;13.398;2023-01-16T11:38:23;7.60;99.90
26952;DHT22;14507;52.418;13.398;2023-01-16T11:40:50;7.60;99.90
26952;DHT22;14507;52.418;13.398;2023-01-16T11:43:22;7.70;99.90
26952;DHT22;14507;52.418;13.398;2023-01-16T11:46:21;7.70;99.90
26952;DHT22;14507;52.418;13.398;2023-01-16T11:48:59;7.70;99.90
26952;DHT22;14507;52.418;13.398;2023-01-16T11:51:28;7.70;99.90
26952;DHT22;14507;52.418;13.398;2023-01-16T11:53:55;7.70;99.90
26952;DHT22;14507;52.418;13.398;2023-01-16T11:56:35;7.70;99.90
26952;DHT22;14507;52.418;13.398;2023-01-16T12:08:11;7.80;99.80
26952;DHT22;14507;52.418;13.398;2023-01-16T12:13:26;7.80;99.80
26952;DHT22;14507;52.418;13.398;2023-01-16T12:16:24;7.90;99.60
26952;DHT22;14507;52.418;13.398;2023-01-16T12:27:49;8.10;99.20
26952;DHT22;14507;52.418;13.398;2023-01-16T12:31:05;8.10;99.10
26952;DHT22;14507;52.418;13.398;2023-01-16T12:36:48;8.20;99.10
26952;DHT22;14507;52.418;13.398;2023-01-16T12:45:17;8.10;98.80
26952;DHT22;14507;52.418;13.398;2023-01-16T12:51:06;8.10;99.90
26952;DHT22;14507;52.418;13.398;2023-01-16T12:59:16;8.00;99.90
26952;DHT22;14507;52.418;13.398;2023-01-16T13:01:45;8.00;99.90
26952;DHT22;14507;52.418;13.398;2023-01-16T13:04:21;7.90;99.90
26952;DHT22;14507;52.418;13.398;2023-01-16T13:06:55;7.70;99.90
26952;DHT22;14507;52.418;13.398;2023-01-16T13:12:24;7.90;99.90
26952;DHT22;14507;52.418;13.398;2023-01-16T13:15:19;7.90;99.90
26952;DHT22;14507;52.418;13.398;2023-01-16T13:17:55;7.90;99.90
26952;DHT22;14507;52.418;13.398;2023-01-16T13:20:23;7.80;99.90
26952;DHT22;14507;52.418;13.398;2023-01-16T13:23:15;7.80;99.90
26952;DHT22;14507;52.418;13.398;2023-01-16T13:25:46;7.80;99.90
26952;DHT22;14507;52.418;13.398;2023-01-16T13:31:07;7.90;99.90
26952;DHT22;14507;52.418;13.398;2023-01-16T13:33:37;7.80;99.90
26952;DHT22;14507;52.418;13.398;2023-01-16T13:36:44;7.90;99.90
26952;DHT22;14507;52.418;13.398;2023-01-16T13:42:02;7.80;99.90
26952;DHT22;14507;52.418;13.398;2023-01-16T13:44:30;7.70;99.90
26952;DHT22;14507;52.418;13.398;2023-01-16T13:47:21;7.70;99.90
26952;DHT22;14507;52.418;13.398;2023-01-16T13:50:00;7.70;99.90
26952;DHT22;14507;52.418;13.398;2023-01-16T13:52:27;7.70;99.90
26952;DHT22;14507;52.418;13.398;2023-01-16T13:54:58;7.70;99.90
26952;DHT22;14507;52.418;13.398;2023-01-16T13:57:26;7.60;99.90
26952;DHT22;14507;52.418;13.398;2023-01-16T13:59:57;7.60;99.90
26952;DHT22;14507;52.418;13.398;2023-01-16T14:02:39;7.60;99.90
26952;DHT22;14507;52.418;13.398;2023-01-16T14:10:46;7.50;99.90
26952;DHT22;14507;52.418;13.398;2023-01-16T14:13:23;7.50;99.90
26952;DHT22;14507;52.418;13.398;2023-01-16T14:15:58;7.50;99.90
26952;DHT22;14507;52.418;13.398;2023-01-16T14:21:24;7.40;99.90
26952;DHT22;14507;52.418;13.398;2023-01-16T14:23:53;7.40;99.90
26952;DHT22;14507;52.418;13.398;2023-01-16T14:31:40;7.40;99.90
26952;DHT22;14507;52.418;13.398;2023-01-16T14:34:20;7.30;99.90
26952;DHT22;14507;52.418;13.398;2023-01-16T14:36:49;7.30;99.90
26952;DHT22;14507;52.418;13.398;2023-01-16T14:39:37;7.30;99.90
26952;DHT22;14507;52.418;13.398;2023-01-16T14:42:15;7.30;99.90
26952;DHT22;14507;52.418;13.398;2023-01-16T14:48:08;7.20;99.90
26952;DHT22;14507;52.418;13.398;2023-01-16T14:53:55;7.10;99.90
26952;DHT22;14507;52.418;13.398;2023-01-16T14:56:41;7.00;99.90
26952;DHT22;14507;52.418;13.398;2023-01-16T14:59:14;6.90;99.90
26952;DHT22;14507;52.418;13.398;2023-01-16T15:01:50;6.90;99.90
26952;DHT22;14507;52.418;13.398;2023-01-16T15:04:44;6.80;99.90
26952;DHT22;14507;52.418;13.398;2023-01-16T15:07:15;6.80;99.90
26952;DHT22;14507;52.418;13.398;2023-01-16T15:09:42;6.70;99.90
26952;DHT22;14507;52.418;13.398;2023-01-16T15:12:16;6.70;99.90
26952;DHT22;14507;52.418;13.398;2023-01-16T15:14:55;6.60;99.90
26952;DHT22;14507;52.418;13.398;2023-01-16T15:17:31;6.60;99.90
26952;DHT22;14507;52.418;13.398;2023-01-16T15:20:27;6.40;99.90
26952;DHT22;14507;52.418;13.398;2023-01-16T15:23:31;6.50;99.90
26952;DHT22;14507;52.418;13.398;2023-01-16T15:31:10;6.40;99.90
26952;DHT22;14507;52.418;13.398;2023-01-16T15:33:38;6.40;99.90
26952;DHT22;14507;52.418;13.398;2023-01-16T15:38:56;6.30;99.90
26952;DHT22;14507;52.418;13.398;2023-01-16T15:41:32;6.30;99.90
26952;DHT22;14507;52.418;13.398;2023-01-16T15:44:20;6.20;99.90
26952;DHT22;14507;52.418;13.398;2023-01-16T15:52:33;6.10;99.90
26952;DHT22;14507;52.418;13.398;2023-01-16T15:55:19;6.10;99.90
26952;DHT22;14507;52.418;13.398;2023-01-16T15:57:49;6.10;99.90
26952;DHT22;14507;52.418;13.398;2023-01-16T16:02:58;6.00;99.90
26952;DHT22;14507;52.418;13.398;2023-01-16T16:05:26;6.00;99.90
26952;DHT22;14507;52.418;13.398;2023-01-16T16:07:52;6.00;99.90
26952;DHT22;14507;52.418;13.398;2023-01-16T16:10:19;5.90;99.90
26952;DHT22;14507;52.418;13.398;2023-01-16T16:13:05;5.90;99.90
26952;DHT22;14507;52.418;13.398;2023-01-16T16:15:31;5.90;99.90
26952;DHT22;14507;52.418;13.398;2023-01-16T16:18:19;5.80;99.90
26952;DHT22;14507;52.418;13.398;2023-01-16T16:20:47;5.90;99.90
26952;DHT22;14507;52.418;13.398;2023-01-16T16:23:19;5.90;99.90
26952;DHT22;14507;52.418;13.398;2023-01-16T16:25:55;5.80;99.90
26952;DHT22;14507;52.418;13.398;2023-01-16T16:33:39;5.70;99.90
26952;DHT22;14507;52.418;13.398;2023-01-16T16:36:05;5.70;99.90
26952;DHT22;14507;52.418;13.398;2023-01-16T16:38:41;5.70;99.90
26952;DHT22;14507;52.418;13.398;2023-01-16T16:43:57;5.60;99.90
26952;DHT22;14507;52.418;13.398;2023-01-16T16:48:50;5.50;99.90
26952;DHT22;14507;52.418;13.398;2023-01-16T16:51:22;5.50;99.90
26952;DHT22;14507;52.418;13.398;2023-01-16T16:54:03;5.50;99.90
26952;DHT22;14507;52.418;13.398;2023-01-16T16:56:33;5.50;99.90
26952;DHT22;14507;52.418;13.398;2023-01-16T16:59:00;5.40;99.90
26952;DHT22;14507;52.418;13.398;2023-01-16T17:01:26;5.40;99.90
26952;DHT22;14507;52.418;13.398;2023-01-16T17:03:56;5.30;99.90
26952;DHT22;14507;52.418;13.398;2023-01-16T17:06:29;5.30;99.90
26952;DHT22;14507;52.418;13.398;2023-01-16T17:08:55;5.30;99.90
26952;DHT22;14507;52.418;13.398;2023-01-16T17:11:21;5.30;99.90
26952;DHT22;14507;52.418;13.398;2023-01-16T17:13:47;5.30;99.90
26952;DHT22;14507;52.418;13.398;2023-01-16T17:16:21;5.20;99.90
26952;DHT22;14507;52.418;13.398;2023-01-16T17:18:49;5.20;99.90
26952;DHT22;14507;52.418;13.398;2023-01-16T17:21:17;5.10;99.90
26952;DHT22;14507;52.418;13.398;2023-01-16T17:23:44;5.20;99.90
26952;DHT22;14507;52.418;13.398;2023-01-16T17:26:11;5.20;99.90
26952;DHT22;14507;52.418;13.398;2023-01-16T17:28:38;5.10;99.90
26952;DHT22;14507;52.418;13.398;2023-01-16T17:31:06;5.10;99.90
26952;DHT22;14507;52.418;13.398;2023-01-16T17:33:34;5.10;99.90
26952;DHT22;14507;52.418;13.398;2023-01-16T17:36:00;5.10;99.90
26952;DHT22;14507;52.418;13.398;2023-01-16T17:38:36;5.10;99.90
26952;DHT22;14507;52.418;13.398;2023-01-16T17:41:02;5.10;99.90
26952;DHT22;14507;52.418;13.398;2023-01-16T17:43:28;5.10;99.90
26952;DHT22;14507;52.418;13.398;2023-01-16T17:46:14;5.40;99.90
26952;DHT22;14507;52.418;13.398;2023-01-16T17:48:41;5.10;99.90
26952;DHT22;14507;52.418;13.398;2023-01-16T17:51:06;5.10;99.90
26952;DHT22;14507;52.418;13.398;2023-01-16T17:53:32;5.20;99.90
26952;DHT22;14507;52.418;13.398;2023-01-16T17:56:01;5.10;99.90
26952;DHT22;14507;52.418;13.398;2023-01-16T17:58:36;5.10;99.90
26952;DHT22;14507;52.418;13.398;2023-01-16T18:01:20;5.10;99.90
26952;DHT22;14507;52.418;13.398;2023-01-16T18:03:50;5.10;99.90
26952;DHT22;14507;52.418;13.398;2023-01-16T18:06:38;5.10;99.90
26952;DHT22;14507;52.418;13.398;2023-01-16T18:09:06;5.10;99.90
26952;DHT22;14507;52.418;13.398;2023-01-16T18:11:34;5.20;99.90
26952;DHT22;14507;52.418;13.398;2023-01-16T18:14:18;5.10;99.90
26952;DHT22;14507;52.418;13.398;2023-01-16T18:17:03;5.10;99.90
26952;DHT22;14507;52.418;13.398;2023-01-16T18:19:56;5.20;99.90
26952;DHT22;14507;52.418;13.398;2023-01-16T18:22:30;5.10;99.90
26952;DHT22;14507;52.418;13.398;2023-01-16T18:25:03;5.10;99.90
26952;DHT22;14507;52.418;13.398;2023-01-16T18:27:29;5.10;99.90
26952;DHT22;14507;52.418;13.398;2023-01-16T18:29:55;5.20;99.90
26952;DHT22;14507;52.418;13.398;2023-01-16T18:32:21;5.20;99.90